Time;durP1;ratioP1;P1;durP2;ratioP2;P2;SDS_P1;SDS_P2;PMS_P1;PMS_P2;Temp;Humidity;BMP_temperature;BMP_pressure;BME280_temperature;BME280_humidity;BME280_pressure;Samples;Min_cycle;Max_cycle;Signal;HPM_P1;HPM_P2
2022/04/06 00:02:04;;;;;;;3.30;3.10;;;9.70;99.90;;;;;;4991411;28;20444;-72
2022/04/06 00:04:29;;;;;;;5.37;3.43;;;9.70;99.90;;;;;;4991860;28;20594;-72
2022/04/06 00:06:55;;;;;;;4.10;3.80;;;9.70;99.90;;;;;;4991611;28;20186;-71
2022/04/06 00:09:21;;;;;;;4.60;4.23;;;9.70;99.90;;;;;;4991762;28;20211;-72
2022/04/06 00:11:47;;;;;;;7.77;3.90;;;9.70;99.90;;;;;;4991386;28;20218;-71
2022/04/06 00:14:12;;;;;;;3.63;3.33;;;9.70;99.90;;;;;;4991980;28;20172;-71
2022/04/06 00:16:38;;;;;;;4.13;3.73;;;9.70;99.90;;;;;;4991923;28;20406;-71
2022/04/06 00:19:03;;;;;;;5.10;4.40;;;9.70;99.90;;;;;;4993868;28;20552;-72
2022/04/06 00:21:29;;;;;;;4.00;3.57;;;9.60;99.90;;;;;;4995552;28;20192;-71
2022/04/06 00:23:56;;;;;;;4.43;4.03;;;9.70;99.90;;;;;;4995412;28;20331;-72
2022/04/06 00:26:22;;;;;;;4.67;4.30;;;9.70;99.90;;;;;;4995496;28;20553;-71
2022/04/06 00:28:47;;;;;;;4.83;4.43;;;9.70;99.90;;;;;;4994906;28;20424;-71
2022/04/06 00:31:13;;;;;;;6.23;4.47;;;9.70;99.90;;;;;;4994999;28;20227;-71
2022/04/06 00:33:39;;;;;;;4.33;3.90;;;9.70;99.90;;;;;;4995147;28;20181;-71
2022/04/06 00:36:05;;;;;;;4.40;4.10;;;9.70;99.90;;;;;;4995051;28;20416;-72
2022/04/06 00:38:30;;;;;;;5.20;4.70;;;9.70;99.90;;;;;;4994975;28;20205;-72
2022/04/06 00:40:56;;;;;;;4.10;3.80;;;9.70;99.90;;;;;;4994595;28;20666;-72
2022/04/06 00:43:21;;;;;;;3.43;3.10;;;9.70;99.90;;;;;;4994976;28;20200;-72
2022/04/06 00:45:47;;;;;;;5.07;4.47;;;9.80;99.90;;;;;;4995099;28;20173;-72
2022/04/06 00:48:13;;;;;;;5.43;3.90;;;9.80;99.90;;;;;;4995024;28;20181;-71
2022/04/06 00:50:41;;;;;;;3.97;3.60;;;9.80;99.90;;;;;;4994855;28;20742;-71
2022/04/06 00:53:07;;;;;;;4.80;4.10;;;9.80;99.90;;;;;;4994891;28;20184;-71
2022/04/06 00:55:37;;;;;;;3.50;3.20;;;9.70;99.90;;;;;;4994904;28;20422;-71
2022/04/06 00:58:04;;;;;;;4.67;4.00;;;9.80;99.90;;;;;;4994058;28;20824;-71
2022/04/06 02:31:07;;;;;;;4.33;3.93;;;9.80;99.90;;;;;;5930560;23;20410;-71
2022/04/06 02:33:33;;;;;;;5.90;4.73;;;9.90;99.90;;;;;;4966811;28;20834;-73
2022/04/06 02:35:59;;;;;;;3.57;3.27;;;9.90;99.90;;;;;;4971035;28;20175;-71
2022/04/06 02:38:24;;;;;;;5.87;4.33;;;9.90;99.90;;;;;;4971257;28;20430;-71
2022/04/06 02:40:50;;;;;;;5.77;5.07;;;9.90;99.90;;;;;;4970645;28;20196;-70
2022/04/06 02:43:15;;;;;;;4.97;4.57;;;9.90;99.90;;;;;;4971418;28;20553;-72
2022/04/06 02:45:41;;;;;;;6.40;4.70;;;9.80;99.90;;;;;;4954305;28;20204;-72
2022/04/06 02:48:07;;;;;;;5.20;4.73;;;9.80;99.90;;;;;;4954088;29;20551;-72
2022/04/06 02:50:32;;;;;;;4.90;4.50;;;9.90;99.90;;;;;;4953966;28;20317;-71
2022/04/06 02:52:58;;;;;;;7.03;4.50;;;9.90;99.90;;;;;;4960516;28;20186;-72
2022/04/06 02:55:24;;;;;;;4.70;4.10;;;9.90;99.90;;;;;;4964599;28;20202;-72
2022/04/06 02:57:49;;;;;;;5.33;4.83;;;9.90;99.90;;;;;;4973364;28;20447;-72
2022/04/06 03:00:15;;;;;;;6.43;4.20;;;9.80;99.90;;;;;;4971045;28;20189;-72
2022/04/06 03:02:42;;;;;;;4.33;3.93;;;9.80;99.90;;;;;;4973043;28;20210;-72
2022/04/06 03:05:08;;;;;;;4.67;4.27;;;9.80;99.90;;;;;;4970843;28;20518;-70
2022/04/06 03:07:33;;;;;;;4.33;4.03;;;9.80;99.90;;;;;;4972129;28;20549;-72
2022/04/06 03:10:00;;;;;;;14.10;4.50;;;9.80;99.90;;;;;;4968906;28;20473;-72
2022/04/06 03:12:26;;;;;;;5.10;4.60;;;9.80;99.90;;;;;;4974417;28;20582;-72
2022/04/06 03:14:51;;;;;;;4.77;4.30;;;9.80;99.90;;;;;;4971867;28;20457;-71
2022/04/06 03:17:17;;;;;;;7.50;3.90;;;9.80;99.90;;;;;;4970842;28;20191;-72
2022/04/06 03:19:43;;;;;;;3.77;3.47;;;9.80;99.90;;;;;;4973272;28;20727;-72
2022/04/06 03:22:09;;;;;;;3.90;3.60;;;9.80;99.90;;;;;;4953278;28;20497;-72
2022/04/06 03:24:34;;;;;;;5.10;4.60;;;9.80;99.90;;;;;;4953886;29;20217;-72
2022/04/06 03:27:00;;;;;;;4.07;3.43;;;9.80;99.90;;;;;;4967675;28;20222;-71
2022/04/06 03:29:26;;;;;;;4.70;4.27;;;9.80;99.90;;;;;;4972842;28;20549;-72
2022/04/06 03:31:52;;;;;;;4.93;4.43;;;9.70;99.90;;;;;;4970325;28;20221;-72
2022/04/06 03:34:18;;;;;;;4.27;3.97;;;9.70;99.90;;;;;;4968609;28;20218;-72
2022/04/06 03:36:43;;;;;;;11.93;4.00;;;9.70;99.90;;;;;;4969862;28;20893;-72
2022/04/06 03:39:09;;;;;;;3.97;3.67;;;9.70;99.90;;;;;;4971803;28;20273;-72
2022/04/06 03:41:34;;;;;;;3.60;3.30;;;9.70;99.90;;;;;;4968143;28;20213;-72
2022/04/06 03:44:00;;;;;;;4.73;4.30;;;9.70;99.90;;;;;;4972607;28;20217;-72
2022/04/06 03:46:25;;;;;;;4.57;3.30;;;9.70;99.90;;;;;;4970545;28;20194;-71
2022/04/06 03:48:51;;;;;;;4.30;3.90;;;9.70;99.90;;;;;;4970469;28;20218;-71
2022/04/06 03:51:16;;;;;;;4.07;3.63;;;9.70;99.90;;;;;;4971358;28;20197;-72
2022/04/06 03:53:42;;;;;;;3.63;3.40;;;9.70;99.90;;;;;;4973130;28;20188;-72
2022/04/06 03:56:07;;;;;;;3.50;3.30;;;9.70;99.90;;;;;;4974617;28;20276;-72
2022/04/06 03:58:33;;;;;;;4.13;3.80;;;9.70;99.90;;;;;;4974190;28;20194;-72
2022/04/06 04:00:58;;;;;;;4.07;3.63;;;9.70;99.90;;;;;;4976132;28;20195;-72
2022/04/06 04:03:24;;;;;;;4.73;4.30;;;9.70;99.90;;;;;;4974095;28;20274;-71
2022/04/06 04:05:49;;;;;;;6.67;5.20;;;9.70;99.90;;;;;;4976537;28;20324;-71
2022/04/06 04:08:15;;;;;;;5.53;5.10;;;9.70;99.90;;;;;;4972401;28;20197;-71
2022/04/06 04:10:40;;;;;;;6.40;5.80;;;9.60;99.90;;;;;;4973800;28;20623;-72
2022/04/06 04:13:06;;;;;;;6.70;4.40;;;9.60;99.90;;;;;;4974097;28;20183;-71
2022/04/06 04:15:32;;;;;;;4.17;3.77;;;9.60;99.90;;;;;;4976166;28;20660;-72
2022/04/06 04:17:58;;;;;;;5.33;4.80;;;9.70;99.90;;;;;;4974190;28;20206;-71
2022/04/06 04:20:23;;;;;;;8.67;5.23;;;9.70;99.90;;;;;;4973787;28;20261;-69
2022/04/06 04:22:49;;;;;;;6.93;5.87;;;9.70;99.90;;;;;;4974797;28;20479;-72
2022/04/06 04:25:15;;;;;;;4.33;3.93;;;9.60;99.90;;;;;;4973672;28;20194;-72
2022/04/06 04:27:40;;;;;;;5.30;4.80;;;9.60;99.90;;;;;;4978076;28;20279;-72
2022/04/06 04:30:06;;;;;;;5.03;4.40;;;9.50;99.90;;;;;;4965341;28;20217;-72
2022/04/06 04:32:32;;;;;;;4.27;3.80;;;9.50;99.90;;;;;;4973435;28;20249;-72
2022/04/06 04:35:00;;;;;;;6.30;5.80;;;9.60;99.90;;;;;;4973898;28;20450;-72
2022/04/06 04:37:26;;;;;;;6.13;5.63;;;9.50;99.90;;;;;;4977106;28;20218;-71
2022/04/06 04:39:51;;;;;;;5.57;5.17;;;9.60;99.90;;;;;;4973527;28;20465;-70
2022/04/06 04:42:17;;;;;;;5.30;4.87;;;9.50;99.90;;;;;;4971534;28;20711;-70
2022/04/06 04:44:42;;;;;;;7.17;4.37;;;9.50;99.90;;;;;;4974738;28;20184;-71
2022/04/06 04:47:08;;;;;;;5.10;4.70;;;9.50;99.90;;;;;;4976716;28;20262;-71
2022/04/06 04:49:33;;;;;;;5.90;5.50;;;9.50;99.90;;;;;;4974473;28;20665;-70
2022/04/06 04:51:59;;;;;;;5.07;4.77;;;9.50;99.90;;;;;;4973338;28;20237;-70
2022/04/06 04:54:26;;;;;;;4.07;3.67;;;9.50;99.90;;;;;;4973375;28;20182;-71
2022/04/06 04:56:52;;;;;;;3.73;3.20;;;9.50;99.90;;;;;;4969939;28;20195;-70
2022/04/06 04:59:18;;;;;;;7.80;3.30;;;9.50;99.90;;;;;;4975123;28;20420;-71
2022/04/06 05:01:44;;;;;;;6.93;3.17;;;9.50;99.90;;;;;;4971150;28;20465;-71
2022/04/06 05:04:09;;;;;;;3.67;3.27;;;9.50;99.90;;;;;;4974785;28;20790;-71
2022/04/06 05:06:37;;;;;;;8.20;5.70;;;9.50;99.90;;;;;;4973570;28;20611;-70
2022/04/06 05:09:02;;;;;;;3.90;3.60;;;9.50;99.90;;;;;;4975043;28;20228;-71
2022/04/06 05:11:28;;;;;;;3.20;2.90;;;9.50;99.90;;;;;;4970992;28;20526;-70
2022/04/06 05:13:53;;;;;;;4.50;4.10;;;9.50;99.90;;;;;;4975133;28;20190;-71
2022/04/06 05:16:19;;;;;;;3.80;3.50;;;9.50;99.90;;;;;;4972645;28;20183;-70
2022/04/06 05:18:45;;;;;;;3.20;3.00;;;9.50;99.90;;;;;;4975091;28;20602;-71
2022/04/06 05:21:10;;;;;;;4.07;3.70;;;9.60;99.90;;;;;;4972702;28;21039;-72
2022/04/06 05:23:36;;;;;;;5.67;4.03;;;9.60;99.90;;;;;;4972718;28;20336;-72
2022/04/06 05:26:02;;;;;;;3.83;3.40;;;9.60;99.90;;;;;;4970638;28;20544;-72
2022/04/06 05:28:28;;;;;;;8.90;4.17;;;9.60;99.90;;;;;;4974842;28;20640;-72
2022/04/06 05:30:53;;;;;;;4.20;3.60;;;9.60;99.90;;;;;;4973708;28;20484;-73
2022/04/06 05:33:19;;;;;;;2.87;2.67;;;9.50;99.90;;;;;;4968821;28;20210;-71
2022/04/06 05:35:44;;;;;;;5.20;3.87;;;9.60;99.90;;;;;;4971520;28;20650;-72
2022/04/06 05:38:10;;;;;;;5.37;3.30;;;9.60;99.90;;;;;;4972676;28;20189;-71
2022/04/06 05:40:35;;;;;;;11.57;4.03;;;9.60;99.90;;;;;;4966886;28;20185;-71
2022/04/06 05:43:02;;;;;;;3.47;3.17;;;9.60;99.90;;;;;;4968402;28;20206;-70
2022/04/06 05:45:27;;;;;;;3.47;3.27;;;9.70;99.90;;;;;;4967587;28;20253;-71
2022/04/06 05:47:53;;;;;;;4.50;4.17;;;9.70;99.90;;;;;;4972128;28;21000;-71
2022/04/06 05:50:18;;;;;;;4.03;3.73;;;9.70;99.90;;;;;;4973383;28;20226;-71
2022/04/06 05:52:44;;;;;;;3.23;3.03;;;9.70;99.90;;;;;;4971298;28;20570;-71
2022/04/06 05:55:10;;;;;;;5.97;3.53;;;9.80;99.90;;;;;;4969538;28;20190;-72
2022/04/06 05:57:35;;;;;;;3.70;3.40;;;9.80;99.90;;;;;;4970166;28;20191;-72
2022/04/06 06:00:01;;;;;;;5.83;4.43;;;9.80;99.90;;;;;;4974573;28;20525;-72
2022/04/06 06:02:29;;;;;;;4.13;3.73;;;9.90;99.90;;;;;;4973043;28;20675;-71
2022/04/06 06:04:54;;;;;;;3.03;2.83;;;9.90;99.90;;;;;;4970985;28;20201;-72
2022/04/06 06:07:21;;;;;;;4.87;3.80;;;9.90;99.90;;;;;;4974125;28;20424;-71
2022/04/06 06:09:47;;;;;;;3.77;3.57;;;10.00;99.90;;;;;;4972234;28;20244;-72
2022/04/06 06:12:13;;;;;;;5.03;4.00;;;10.00;99.90;;;;;;4971419;28;20966;-72
2022/04/06 06:14:38;;;;;;;4.40;4.00;;;10.00;99.90;;;;;;4970369;28;20452;-72
2022/04/06 06:17:04;;;;;;;4.80;3.90;;;10.10;99.90;;;;;;4972975;28;20244;-72
2022/04/06 06:19:30;;;;;;;4.83;4.20;;;10.10;99.90;;;;;;4971683;28;20748;-72
2022/04/06 06:21:55;;;;;;;10.23;3.30;;;10.10;99.90;;;;;;4973558;28;20217;-72
2022/04/06 06:24:21;;;;;;;4.50;4.10;;;10.20;99.90;;;;;;4971660;28;20189;-72
2022/04/06 06:26:47;;;;;;;4.13;3.83;;;10.30;99.90;;;;;;4961544;28;20186;-71
2022/04/06 06:29:13;;;;;;;4.03;3.63;;;10.30;99.90;;;;;;4972231;28;20680;-73
2022/04/06 06:31:38;;;;;;;4.00;3.70;;;10.30;99.90;;;;;;4973529;28;20462;-71
2022/04/06 06:34:04;;;;;;;4.30;3.40;;;10.30;99.90;;;;;;4969053;28;20193;-72
2022/04/06 06:36:30;;;;;;;3.37;3.17;;;10.40;99.90;;;;;;4973296;28;20211;-72
2022/04/06 06:38:56;;;;;;;4.10;3.80;;;10.50;99.90;;;;;;4973155;28;20183;-72
2022/04/06 06:41:22;;;;;;;7.50;3.17;;;10.50;99.90;;;;;;4969817;28;20707;-71
2022/04/06 06:43:50;;;;;;;5.87;3.43;;;10.60;99.90;;;;;;4974173;28;20414;-71
2022/04/06 06:46:17;;;;;;;3.87;3.10;;;10.60;99.90;;;;;;4969831;28;20939;-71
2022/04/06 06:48:43;;;;;;;3.70;2.80;;;10.70;99.90;;;;;;4972432;28;20794;-72
2022/04/06 06:51:08;;;;;;;3.60;2.97;;;10.80;99.90;;;;;;4970698;28;20466;-71
2022/04/06 06:53:34;;;;;;;2.80;2.60;;;10.80;99.90;;;;;;4973127;28;20633;-71
2022/04/06 06:55:59;;;;;;;2.73;2.53;;;10.80;99.90;;;;;;4968906;28;20203;-71
2022/04/06 06:58:25;;;;;;;2.97;2.50;;;10.90;99.90;;;;;;4972646;28;20546;-72
2022/04/06 07:00:50;;;;;;;2.23;2.10;;;11.00;99.90;;;;;;4972694;28;20169;-71
2022/04/06 07:03:16;;;;;;;2.67;2.50;;;11.00;99.90;;;;;;4970880;28;20219;-72
2022/04/06 07:05:41;;;;;;;4.70;2.40;;;11.00;99.90;;;;;;4973666;28;20176;-71
2022/04/06 07:08:07;;;;;;;2.77;2.57;;;11.10;99.90;;;;;;4968903;28;20188;-71
2022/04/06 07:10:33;;;;;;;3.53;2.90;;;11.10;99.90;;;;;;4970550;28;20211;-72
2022/04/06 07:12:59;;;;;;;4.43;2.70;;;11.10;99.90;;;;;;4970742;28;20202;-72
2022/04/06 07:15:25;;;;;;;4.13;3.53;;;11.10;99.90;;;;;;4972804;28;20190;-71
2022/04/06 07:17:56;;;;;;;3.30;3.10;;;11.10;99.90;;;;;;4970559;28;20441;-71
2022/04/06 07:20:22;;;;;;;5.90;3.40;;;11.20;99.90;;;;;;4970660;28;20442;-71
2022/04/06 07:22:49;;;;;;;3.37;3.07;;;11.30;99.90;;;;;;4971612;28;20455;-72
2022/04/06 07:25:14;;;;;;;3.20;2.97;;;11.50;99.90;;;;;;4970519;28;20431;-72
2022/04/06 07:27:40;;;;;;;5.17;2.83;;;11.70;99.90;;;;;;4971273;28;20432;-71
2022/04/06 07:30:08;;;;;;;2.37;2.17;;;11.80;99.90;;;;;;4968525;28;20711;-72
2022/04/06 07:32:35;;;;;;;2.60;2.40;;;11.90;99.90;;;;;;4971565;28;20295;-72
2022/04/06 07:35:01;;;;;;;2.37;2.17;;;12.00;99.90;;;;;;4967655;28;21015;-72
2022/04/06 07:37:34;;;;;;;2.30;2.07;;;12.10;99.90;;;;;;4972242;28;20474;-72
2022/04/06 07:39:59;;;;;;;2.30;2.10;;;12.10;99.90;;;;;;4966441;28;20866;-72
2022/04/06 07:42:25;;;;;;;1.50;1.40;;;12.30;99.90;;;;;;4971941;28;20509;-72
2022/04/06 07:44:50;;;;;;;2.30;1.93;;;12.30;99.90;;;;;;4970474;28;20219;-72
2022/04/06 07:47:16;;;;;;;1.67;1.57;;;12.30;99.90;;;;;;4972082;28;20187;-72
2022/04/06 07:49:41;;;;;;;3.43;1.53;;;12.10;99.90;;;;;;4971579;28;20286;-71
2022/04/06 07:52:07;;;;;;;1.73;1.63;;;12.20;99.90;;;;;;4968680;28;20200;-71
2022/04/06 07:54:32;;;;;;;2.10;1.97;;;12.20;99.90;;;;;;4972446;28;20183;-72
2022/04/06 07:56:58;;;;;;;1.33;1.23;;;12.10;99.90;;;;;;4969952;28;20183;-72
2022/04/06 07:59:23;;;;;;;1.83;1.70;;;12.20;99.90;;;;;;4972299;28;20522;-72
2022/04/06 08:01:49;;;;;;;2.20;1.63;;;12.30;99.90;;;;;;4967778;28;20216;-72
2022/04/06 08:04:14;;;;;;;1.80;1.70;;;12.40;99.90;;;;;;4972159;28;20653;-72
2022/04/06 08:06:40;;;;;;;1.53;1.30;;;12.40;99.90;;;;;;4970127;28;20709;-71
2022/04/06 08:09:06;;;;;;;2.73;1.60;;;12.50;99.90;;;;;;4970851;28;20184;-71
2022/04/06 08:11:32;;;;;;;1.40;1.30;;;12.70;99.90;;;;;;4967934;28;20270;-71
2022/04/06 08:13:58;;;;;;;2.10;1.60;;;12.90;99.90;;;;;;4971086;28;20423;-71
2022/04/06 08:16:23;;;;;;;1.90;1.27;;;13.30;99.90;;;;;;4970762;28;20724;-72
2022/04/06 08:18:49;;;;;;;3.70;1.20;;;13.50;99.90;;;;;;4970026;28;20184;-72
2022/04/06 08:21:14;;;;;;;1.27;1.17;;;14.00;99.90;;;;;;4971739;28;20196;-73
2022/04/06 08:23:40;;;;;;;2.10;1.30;;;14.50;99.90;;;;;;4968128;28;20553;-72
2022/04/06 08:26:05;;;;;;;1.57;1.17;;;15.00;99.90;;;;;;4969941;28;20231;-72
2022/04/06 08:28:31;;;;;;;1.20;1.10;;;15.60;99.90;;;;;;4969786;28;20664;-72
2022/04/06 08:30:56;;;;;;;2.57;1.23;;;15.70;99.90;;;;;;4971603;28;20235;-71
2022/04/06 08:33:22;;;;;;;0.80;0.80;;;15.40;99.90;;;;;;4968001;28;20263;-72
2022/04/06 08:35:47;;;;;;;0.80;0.80;;;15.00;99.90;;;;;;4969897;28;20645;-72
2022/04/06 08:38:15;;;;;;;0.60;0.60;;;14.90;99.90;;;;;;4970217;28;20182;-71
2022/04/06 08:40:42;;;;;;;1.27;0.60;;;14.70;99.90;;;;;;4971060;28;20185;-71
2022/04/06 08:43:09;;;;;;;0.60;0.60;;;14.70;99.90;;;;;;4975238;28;20908;-71
2022/04/06 08:45:38;;;;;;;0.60;0.60;;;14.60;99.90;;;;;;4971925;28;20478;-72
2022/04/06 08:48:06;;;;;;;0.60;0.60;;;14.50;99.90;;;;;;4974997;28;20938;-71
2022/04/06 08:50:33;;;;;;;2.87;0.80;;;14.50;99.90;;;;;;4972913;28;20473;-73
2022/04/06 08:53:02;;;;;;;1.20;0.83;;;14.30;99.90;;;;;;4975152;28;20453;-71
2022/04/06 08:55:29;;;;;;;0.70;0.70;;;14.30;99.90;;;;;;4968827;28;20483;-70
2022/04/06 08:57:56;;;;;;;0.90;0.73;;;14.30;99.90;;;;;;4975018;28;20458;-70
2022/04/06 09:00:22;;;;;;;0.70;0.70;;;14.20;99.90;;;;;;4972912;28;20947;-71
2022/04/06 09:02:47;;;;;;;1.67;0.80;;;13.90;99.90;;;;;;4975220;28;20431;-72
2022/04/06 09:05:13;;;;;;;0.97;0.90;;;13.80;99.90;;;;;;4973443;28;20221;-71
2022/04/06 09:07:39;;;;;;;1.00;0.70;;;13.80;99.90;;;;;;4973160;28;20277;-71
2022/04/06 09:10:05;;;;;;;0.80;0.80;;;13.80;99.90;;;;;;4973776;28;20489;-72
2022/04/06 09:12:31;;;;;;;0.80;0.80;;;13.70;99.90;;;;;;4972893;28;20238;-72
2022/04/06 09:15:02;;;;;;;1.23;0.80;;;13.90;99.90;;;;;;4975270;28;20471;-73
2022/04/06 09:17:28;;;;;;;0.80;0.80;;;14.10;99.90;;;;;;4970992;28;20207;-72
2022/04/06 09:19:53;;;;;;;1.23;0.90;;;14.20;99.90;;;;;;4974984;28;20416;-72
2022/04/06 09:22:20;;;;;;;0.60;0.60;;;14.30;99.90;;;;;;4972481;28;20224;-72
2022/04/06 09:24:57;;;;;;;1.23;0.70;;;14.30;99.90;;;;;;4974947;28;20179;-72
2022/04/06 09:27:29;;;;;;;1.00;0.70;;;14.30;99.90;;;;;;4970532;28;20453;-72
2022/04/06 09:29:55;;;;;;;0.60;0.50;;;14.60;99.90;;;;;;4974754;28;20470;-72
2022/04/06 09:32:20;;;;;;;3.37;0.63;;;14.70;99.90;;;;;;4972348;28;20976;-72
2022/04/06 09:34:46;;;;;;;2.10;0.87;;;15.50;99.90;;;;;;4968387;28;20192;-72
2022/04/06 09:37:26;;;;;;;3.23;0.60;;;16.30;99.90;;;;;;4972764;28;20234;-72
2022/04/06 09:39:52;;;;;;;0.50;0.50;;;16.70;99.90;;;;;;4972514;28;20815;-72
2022/04/06 09:42:21;;;;;;;4.83;0.50;;;16.30;99.90;;;;;;4972016;28;20554;-72
2022/04/06 09:47:51;;;;;;;2.10;0.50;;;16.30;99.90;;;;;;4973102;28;20450;-72
2022/04/06 09:50:22;;;;;;;2.20;0.50;;;15.90;99.90;;;;;;4972227;28;20470;-71
2022/04/06 09:52:49;;;;;;;0.43;0.43;;;15.50;99.90;;;;;;4972238;28;20963;-72
2022/04/06 09:55:16;;;;;;;0.93;0.60;;;15.30;99.90;;;;;;4973939;28;20483;-72
2022/04/06 09:57:53;;;;;;;0.70;0.40;;;15.60;99.90;;;;;;4970335;28;20438;-72
2022/04/06 10:00:22;;;;;;;0.50;0.50;;;16.10;99.90;;;;;;4972500;28;20564;-72
2022/04/06 10:03:09;;;;;;;0.50;0.50;;;16.90;99.90;;;;;;4972981;28;20570;-72
2022/04/06 10:05:37;;;;;;;0.50;0.40;;;17.30;99.90;;;;;;4974415;28;20418;-72
2022/04/06 10:08:04;;;;;;;0.60;0.50;;;16.70;99.90;;;;;;4972155;28;20419;-73
2022/04/06 10:10:35;;;;;;;0.50;0.43;;;16.40;99.90;;;;;;4970023;28;20490;-69
2022/04/06 10:13:04;;;;;;;0.40;0.40;;;16.20;99.90;;;;;;4969090;28;20500;-72
2022/04/06 10:15:31;;;;;;;0.40;0.40;;;15.90;99.90;;;;;;4973808;28;20422;-72
2022/04/06 10:17:56;;;;;;;0.50;0.40;;;16.00;99.90;;;;;;4973966;28;20492;-71
2022/04/06 10:20:32;;;;;;;1.63;0.43;;;15.90;99.90;;;;;;4969726;28;20443;-72
2022/04/06 10:23:18;;;;;;;0.77;0.40;;;15.90;99.90;;;;;;4974206;28;20202;-72
2022/04/06 10:26:20;;;;;;;0.50;0.40;;;16.30;99.90;;;;;;4969977;28;20431;-73
2022/04/06 10:28:49;;;;;;;1.07;0.40;;;16.50;99.90;;;;;;4973286;28;20504;-73
2022/04/06 10:31:24;;;;;;;0.47;0.40;;;16.80;99.90;;;;;;4970909;28;20525;-73
2022/04/06 10:33:50;;;;;;;0.60;0.50;;;17.30;99.90;;;;;;4971414;28;20537;-73
2022/04/06 10:36:26;;;;;;;0.40;0.30;;;17.00;99.90;;;;;;4971733;28;20443;-73
2022/04/06 10:39:07;;;;;;;0.63;0.40;;;17.10;99.90;;;;;;4973816;28;20799;-72
2022/04/06 10:41:33;;;;;;;0.40;0.30;;;17.10;99.90;;;;;;4966952;28;20494;-73
2022/04/06 10:43:59;;;;;;;0.50;0.40;;;17.00;99.90;;;;;;4973236;28;20503;-72
2022/04/06 10:46:40;;;;;;;0.40;0.40;;;17.10;99.90;;;;;;4971619;28;20538;-72
2022/04/06 10:49:06;;;;;;;1.33;0.30;;;16.70;99.90;;;;;;4973205;28;20247;-72
2022/04/06 10:51:37;;;;;;;0.40;0.40;;;16.60;99.90;;;;;;4969033;28;20906;-72
2022/04/06 10:54:38;;;;;;;0.50;0.40;;;16.40;99.90;;;;;;4973344;28;20223;-72
2022/04/06 10:57:04;;;;;;;0.50;0.50;;;16.80;99.90;;;;;;4951457;28;20466;-72
2022/04/06 10:59:29;;;;;;;0.40;0.40;;;16.90;99.90;;;;;;4973274;28;20964;-72
2022/04/06 11:02:14;;;;;;;0.80;0.40;;;16.90;99.90;;;;;;4968490;28;20291;-72
2022/04/06 11:04:40;;;;;;;0.60;0.50;;;17.00;99.90;;;;;;4973210;28;20184;-72
2022/04/06 11:07:08;;;;;;;2.60;0.40;;;17.30;99.90;;;;;;4971289;28;20893;-72
2022/04/06 11:12:28;;;;;;;0.40;0.40;;;18.40;99.90;;;;;;4968321;28;21421;-72
2022/04/06 11:14:59;;;;;;;0.50;0.40;;;18.40;99.90;;;;;;4972973;28;20420;-72
2022/04/06 11:17:43;;;;;;;0.50;0.43;;;18.50;99.90;;;;;;4970746;28;20446;-72
2022/04/06 11:20:17;;;;;;;2.87;0.50;;;18.60;99.90;;;;;;4971492;28;20423;-72
2022/04/06 11:22:49;;;;;;;0.40;0.40;;;18.40;99.90;;;;;;4969102;28;20486;-72
2022/04/06 11:25:17;;;;;;;6.63;0.50;;;17.90;99.90;;;;;;4953556;28;20503;-72
2022/04/06 11:27:44;;;;;;;0.40;0.40;;;17.10;99.90;;;;;;4967827;28;20858;-72
2022/04/06 11:30:18;;;;;;;0.50;0.47;;;17.00;99.90;;;;;;4972583;28;20472;-72
2022/04/06 11:32:55;;;;;;;0.70;0.60;;;17.40;99.90;;;;;;4966145;28;20468;-72
2022/04/06 11:35:26;;;;;;;0.50;0.50;;;18.00;99.90;;;;;;4972404;28;20470;-72
2022/04/06 11:37:51;;;;;;;0.63;0.50;;;18.40;99.90;;;;;;4972693;28;20415;-72
2022/04/06 11:40:19;;;;;;;1.50;0.40;;;18.30;99.90;;;;;;4972516;28;20422;-72
2022/04/06 11:42:48;;;;;;;0.70;0.60;;;17.70;99.90;;;;;;4968351;28;20655;-72
2022/04/06 11:45:25;;;;;;;0.60;0.50;;;17.70;99.90;;;;;;4972885;28;20522;-72
2022/04/06 11:48:02;;;;;;;0.50;0.40;;;17.50;99.90;;;;;;4972267;28;20923;-72
2022/04/06 11:50:33;;;;;;;0.50;0.40;;;17.80;99.90;;;;;;4967464;28;20912;-71
2022/04/06 11:53:22;;;;;;;0.60;0.60;;;17.40;99.90;;;;;;4971165;28;20466;-72
2022/04/06 11:55:50;;;;;;;0.47;0.47;;;16.90;99.90;;;;;;4970716;28;21061;-71
2022/04/06 11:58:38;;;;;;;0.87;0.60;;;17.00;99.90;;;;;;4970781;28;20415;-72
2022/04/06 12:01:13;;;;;;;0.73;0.73;;;17.10;99.90;;;;;;4970238;28;20437;-72
2022/04/06 12:03:41;;;;;;;0.40;0.40;;;17.00;99.90;;;;;;4971096;28;20410;-71
2022/04/06 12:06:11;;;;;;;0.50;0.50;;;16.90;99.90;;;;;;4970899;28;20410;-72
2022/04/06 12:08:38;;;;;;;0.40;0.40;;;16.90;99.90;;;;;;4971148;28;20754;-72
2022/04/06 12:11:04;;;;;;;0.40;0.40;;;16.80;99.90;;;;;;4971344;28;20459;-72
2022/04/06 12:13:32;;;;;;;0.40;0.40;;;16.70;99.90;;;;;;4972446;28;20422;-72
2022/04/06 12:15:58;;;;;;;1.73;0.50;;;16.50;99.90;;;;;;4976317;28;20195;-72
2022/04/06 12:18:26;;;;;;;0.40;0.40;;;16.70;99.90;;;;;;4975022;28;20424;-72
2022/04/06 12:20:52;;;;;;;0.47;0.40;;;17.00;99.90;;;;;;4975790;28;20424;-72
2022/04/06 12:23:19;;;;;;;0.47;0.40;;;17.40;99.90;;;;;;4974869;28;20953;-72
2022/04/06 12:25:46;;;;;;;0.40;0.40;;;17.40;99.90;;;;;;4975848;28;20450;-72
2022/04/06 12:28:17;;;;;;;0.50;0.50;;;17.30;99.90;;;;;;4976609;28;20974;-73
2022/04/06 12:30:59;;;;;;;0.77;0.50;;;17.10;99.90;;;;;;4976689;28;20458;-72
2022/04/06 12:33:32;;;;;;;0.70;0.50;;;17.10;99.90;;;;;;4975347;28;20489;-73
2022/04/06 12:36:23;;;;;;;0.40;0.40;;;17.10;99.90;;;;;;4974762;28;20423;-72
2022/04/06 12:38:57;;;;;;;0.57;0.53;;;16.90;99.90;;;;;;4975955;28;20785;-72
2022/04/06 12:41:25;;;;;;;0.50;0.40;;;17.00;99.90;;;;;;4975199;28;20458;-72
2022/04/06 12:43:51;;;;;;;0.60;0.60;;;16.70;99.90;;;;;;4975917;28;20809;-72
2022/04/06 12:46:40;;;;;;;0.50;0.30;;;16.70;99.90;;;;;;4975331;28;20474;-72
2022/04/06 12:49:36;;;;;;;1.10;0.50;;;17.00;99.90;;;;;;4969076;28;20447;-72
2022/04/06 12:52:13;;;;;;;4.10;0.50;;;17.20;99.90;;;;;;4975148;28;20521;-72
2022/04/06 12:54:43;;;;;;;0.50;0.40;;;17.30;99.90;;;;;;4975492;28;20422;-72
2022/04/06 12:57:20;;;;;;;0.43;0.40;;;17.40;99.90;;;;;;4975349;28;20431;-72
2022/04/06 12:59:58;;;;;;;4.13;0.50;;;17.60;99.90;;;;;;4975476;28;20447;-72
2022/04/06 13:02:25;;;;;;;0.50;0.47;;;17.70;99.90;;;;;;4975035;28;20450;-72
2022/04/06 13:04:52;;;;;;;0.70;0.40;;;17.80;99.90;;;;;;4975409;28;20418;-72
2022/04/06 13:07:18;;;;;;;1.90;0.40;;;17.60;99.90;;;;;;4975073;28;20431;-72
2022/04/06 13:09:51;;;;;;;0.53;0.50;;;17.30;99.90;;;;;;4975429;28;20458;-72
2022/04/06 13:12:25;;;;;;;1.60;0.67;;;17.20;99.90;;;;;;4975041;28;20639;-72
2022/04/06 13:14:53;;;;;;;0.97;0.43;;;17.20;99.90;;;;;;4975252;28;20419;-72
2022/04/06 13:17:21;;;;;;;0.50;0.40;;;17.00;99.90;;;;;;4974964;28;20958;-72
2022/04/06 13:19:47;;;;;;;0.50;0.50;;;16.80;99.90;;;;;;4975027;28;20784;-72
2022/04/06 13:22:13;;;;;;;0.40;0.40;;;16.90;99.90;;;;;;4974838;28;20435;-72
2022/04/06 13:24:39;;;;;;;0.40;0.40;;;17.00;99.90;;;;;;4974614;28;20435;-71
2022/04/06 13:27:07;;;;;;;1.87;0.57;;;17.20;99.90;;;;;;4975230;28;20486;-72
2022/04/06 13:29:33;;;;;;;1.17;0.60;;;17.10;99.90;;;;;;4975661;28;20210;-72
2022/04/06 13:31:58;;;;;;;3.23;0.60;;;17.20;99.90;;;;;;4974251;28;20463;-72
2022/04/06 13:34:25;;;;;;;2.30;0.70;;;17.40;99.90;;;;;;4974677;28;20505;-72
2022/04/06 13:36:51;;;;;;;0.70;0.50;;;17.60;99.90;;;;;;4974972;28;20699;-72
2022/04/06 13:39:17;;;;;;;0.60;0.60;;;17.80;99.90;;;;;;4974480;28;20419;-73
2022/04/06 13:41:43;;;;;;;0.50;0.40;;;17.80;99.90;;;;;;4974458;28;20494;-72
2022/04/06 13:44:10;;;;;;;0.57;0.50;;;18.00;99.90;;;;;;4974311;28;20466;-72
2022/04/06 13:46:37;;;;;;;1.20;0.50;;;18.00;99.90;;;;;;4974722;28;20459;-72
2022/04/06 13:49:03;;;;;;;0.40;0.40;;;18.00;99.90;;;;;;4974164;28;20427;-72
2022/04/06 13:51:30;;;;;;;2.50;0.50;;;17.80;99.90;;;;;;4974197;28;20894;-72
2022/04/06 13:53:55;;;;;;;0.70;0.50;;;17.70;99.90;;;;;;4974481;28;20804;-72
2022/04/06 13:56:21;;;;;;;2.10;0.60;;;17.60;99.90;;;;;;4974260;28;20982;-72
2022/04/06 13:58:47;;;;;;;0.50;0.50;;;17.80;99.90;;;;;;4974309;28;20182;-72
2022/04/06 14:01:13;;;;;;;0.60;0.40;;;17.80;99.90;;;;;;4973783;28;20201;-72
2022/04/06 14:03:39;;;;;;;1.73;0.50;;;17.70;99.90;;;;;;4974176;28;20175;-72
2022/04/06 14:06:08;;;;;;;0.53;0.53;;;17.50;99.90;;;;;;4973951;28;20415;-72
2022/04/06 14:08:33;;;;;;;0.50;0.40;;;17.30;99.90;;;;;;4974070;28;20422;-72
2022/04/06 14:11:00;;;;;;;0.60;0.40;;;17.10;99.90;;;;;;4973638;28;20470;-72
2022/04/06 14:13:25;;;;;;;0.40;0.40;;;17.00;99.90;;;;;;4973973;28;20204;-72
2022/04/06 14:15:52;;;;;;;0.83;0.50;;;16.90;99.90;;;;;;4974030;28;20411;-69
2022/04/06 14:18:19;;;;;;;0.50;0.40;;;16.80;99.90;;;;;;4973877;28;20263;-69
2022/04/06 14:20:45;;;;;;;0.40;0.40;;;16.70;99.90;;;;;;4969714;28;20963;-69
2022/04/06 14:23:11;;;;;;;0.60;0.60;;;16.70;99.90;;;;;;4973451;28;20510;-69
2022/04/06 14:25:37;;;;;;;0.50;0.40;;;16.90;99.90;;;;;;4973419;28;20843;-69
2022/04/06 14:28:03;;;;;;;0.80;0.70;;;17.10;99.90;;;;;;4973826;28;20662;-69
2022/04/06 14:30:29;;;;;;;4.00;0.80;;;17.30;99.90;;;;;;4972609;28;20208;-68